Strait of Georgia - south of Nanaimo: Past 24 Hour Conditions

 

South Nomad - 46036

03:00 AM PST 09 December 2016Buoy position: 48.35N 133.95W
Disclaimer

This table is a summary of hourly weather conditions for the past 24 hours.
Please note that these observations might not always be representative of weather conditions over their associated marine area.

Date / Time
(PST)
Wind(knots) Wave height(m) Wave period(s) Pressure(kPa) Air tempC) Water tempC)
09 December 2016
3:00 WSW 25 gust 33 5.4 11.0 100.0 7 9
2:00 WSW 27 gust 37 5.5 12.0 100.0 7 9
1:00 WSW 27 6.2 10.0 100.0 7 9
0:00 WSW 27 gust 35 4.8 10.0 99.9 8 9
08 December 2016
23:00 WSW 29 gust 35 4.6 10.0 99.9 8 9
22:00 WSW 27 gust 37 4.6 11.0 99.8 8 9
21:00 WSW 27 gust 39 4.2 11.0 99.7 8 9
20:00 WSW 27 gust 37 4.7 11.0 99.7 7 9
19:00 ESE 21 gust 25 4.6 11.0 99.7 8 9
18:00 E 23 gust 27 4.7 11.0 99.8 7 9
17:00 ESE 25 gust 31 5.0 10.0 99.8 7 9
16:00 E 21 gust 29 4.4 11.0 99.9 7 9
15:00 ESE 25 gust 29 4.9 10.0 100.0 7 9
14:00 ESE 25 gust 29 5.0 10.0 100.0 7 9
13:00 ESE 27 gust 33 5.2 10.0 100.1 7 9
12:00 ESE 29 gust 37 5.3 10.0 100.2 8 9
11:00 ESE 27 gust 35 4.9 10.0 100.3 8 9
10:00 E 27 N/A N/A 100.3 8 N/A
9:00 E 27 gust 35 5.4 10.0 100.4 8 9
8:00 ESE 27 gust 35 5.1 9.0 100.5 8 9
7:00 ESE 25 gust 31 4.7 10.0 100.6 8 9
6:00 ESE 25 gust 33 4.5 9.0 100.6 8 9
5:00 ESE 27 gust 33 4.2 8.0 100.8 8 9
4:00 ESE 25 gust 31 4.0 9.0 100.9 8 9
3:00 ESE 25 gust 31 4.2 8.0 101.0 8 9

Zoom-in to make a selection

Map of Pacific - South Coast marine weather areas Tsawwassen Ferry Terminal South Nomad - 46036 Sentry Shoal - 46131 South Brooks - 46132 Halibut Bank - 46146 South Moresby - 46147 South Hecate Strait - 46185 West Sea Otter - 46204 La Perouse Bank - 46206 East Dellwood - 46207 Discovery Island Esquimalt Harbour Kelp Reefs Malahat Race Rocks Lightstation Saturna Island Sheringham Point University of Victoria Victoria Gonzales Victoria Int'l Airport Ballenas Islands Campbell River Airport Comox Airport Entrance Island Fanny Island Nanaimo Airport Port Hardy Airport Sisters Islets Estevan Point Sartine Island Solander Island Tofino Airport Grief Point Powell River Airport Sechelt Cape St.James Bella Bella Airport Bella Coola Airport Cathedral Point Herbert Island Point Atkinson Sand Heads Lightstation Vancouver Harbour Vancouver Int'l Airport West Vancouver Port Alberni Howe Sound - Pam Rocks Squamish Airport
Legend:
buoy Buoy
land station Land Station

Pacific - South Coast Area

Another Region

What we are doing

Date modified: